sensor_id;sensor_type;location;lat;lon;timestamp;pressure;altitude;pressure_sealevel;temperature;humidity
11413;BME280;5762;43.256;26.960;2023-07-28T00:01:20;99431.75;;;18.10;100.00
11413;BME280;5762;43.256;26.960;2023-07-28T00:03:49;99444.37;;;18.15;100.00
11413;BME280;5762;43.256;26.960;2023-07-28T00:06:18;99439.17;;;18.09;100.00
11413;BME280;5762;43.256;26.960;2023-07-28T00:08:46;99442.03;;;17.97;100.00
11413;BME280;5762;43.256;26.960;2023-07-28T00:11:15;99439.94;;;17.31;100.00
11413;BME280;5762;43.256;26.960;2023-07-28T00:13:44;99456.17;;;16.96;100.00
11413;BME280;5762;43.256;26.960;2023-07-28T00:16:13;99461.58;;;16.68;100.00
11413;BME280;5762;43.256;26.960;2023-07-28T00:18:42;99471.52;;;16.49;100.00
11413;BME280;5762;43.256;26.960;2023-07-28T00:21:11;99463.89;;;16.36;100.00
11413;BME280;5762;43.256;26.960;2023-07-28T00:23:40;99477.21;;;16.37;100.00
11413;BME280;5762;43.256;26.960;2023-07-28T00:26:08;99484.17;;;16.23;100.00
11413;BME280;5762;43.256;26.960;2023-07-28T00:28:37;99487.34;;;16.06;100.00
11413;BME280;5762;43.256;26.960;2023-07-28T00:31:06;99496.00;;;16.08;100.00
11413;BME280;5762;43.256;26.960;2023-07-28T00:33:36;99494.73;;;15.88;100.00
11413;BME280;5762;43.256;26.960;2023-07-28T00:36:05;99495.40;;;15.79;100.00
11413;BME280;5762;43.256;26.960;2023-07-28T00:38:34;99507.31;;;15.68;100.00
11413;BME280;5762;43.256;26.960;2023-07-28T00:41:03;99508.78;;;15.65;100.00
11413;BME280;5762;43.256;26.960;2023-07-28T00:43:31;99517.63;;;15.62;100.00
11413;BME280;5762;43.256;26.960;2023-07-28T00:46:00;99516.81;;;15.56;100.00
11413;BME280;5762;43.256;26.960;2023-07-28T00:48:29;99522.75;;;15.64;100.00
11413;BME280;5762;43.256;26.960;2023-07-28T00:50:58;99525.02;;;15.62;100.00
11413;BME280;5762;43.256;26.960;2023-07-28T00:53:27;99529.26;;;15.71;100.00
11413;BME280;5762;43.256;26.960;2023-07-28T00:55:56;99532.34;;;15.76;100.00
11413;BME280;5762;43.256;26.960;2023-07-28T00:58:24;99533.18;;;15.89;100.00
11413;BME280;5762;43.256;26.960;2023-07-28T01:00:53;99536.69;;;15.83;100.00
11413;BME280;5762;43.256;26.960;2023-07-28T01:03:22;99542.00;;;15.73;100.00
11413;BME280;5762;43.256;26.960;2023-07-28T01:06:18;99544.75;;;15.80;100.00
11413;BME280;5762;43.256;26.960;2023-07-28T01:08:49;99547.69;;;15.74;100.00
11413;BME280;5762;43.256;26.960;2023-07-28T01:11:15;99546.64;;;15.67;100.00
11413;BME280;5762;43.256;26.960;2023-07-28T01:13:45;99554.13;;;15.64;100.00
11413;BME280;5762;43.256;26.960;2023-07-28T01:16:14;99557.09;;;15.59;100.00
11413;BME280;5762;43.256;26.960;2023-07-28T01:18:48;99560.06;;;15.45;100.00
11413;BME280;5762;43.256;26.960;2023-07-28T01:21:21;99561.83;;;15.35;100.00
11413;BME280;5762;43.256;26.960;2023-07-28T01:26:39;99565.76;;;15.25;100.00
11413;BME280;5762;43.256;26.960;2023-07-28T01:29:04;99563.82;;;15.20;100.00
11413;BME280;5762;43.256;26.960;2023-07-28T01:31:33;99563.45;;;15.15;100.00
11413;BME280;5762;43.256;26.960;2023-07-28T01:34:02;99572.76;;;15.14;100.00
11413;BME280;5762;43.256;26.960;2023-07-28T01:36:31;99574.39;;;15.21;100.00
11413;BME280;5762;43.256;26.960;2023-07-28T01:39:00;99577.13;;;15.21;100.00
11413;BME280;5762;43.256;26.960;2023-07-28T01:41:28;99583.48;;;15.25;100.00
11413;BME280;5762;43.256;26.960;2023-07-28T01:43:57;99588.34;;;15.40;100.00
11413;BME280;5762;43.256;26.960;2023-07-28T01:46:26;99573.37;;;15.26;100.00
11413;BME280;5762;43.256;26.960;2023-07-28T01:48:55;99576.23;;;15.29;100.00
11413;BME280;5762;43.256;26.960;2023-07-28T01:51:29;99583.68;;;15.41;100.00
11413;BME280;5762;43.256;26.960;2023-07-28T01:53:53;99580.82;;;15.37;100.00
11413;BME280;5762;43.256;26.960;2023-07-28T01:56:22;99580.36;;;15.35;100.00
11413;BME280;5762;43.256;26.960;2023-07-28T01:58:51;99577.59;;;15.23;100.00
11413;BME280;5762;43.256;26.960;2023-07-28T02:01:20;99574.06;;;15.23;100.00
11413;BME280;5762;43.256;26.960;2023-07-28T02:03:49;99594.05;;;15.27;100.00
11413;BME280;5762;43.256;26.960;2023-07-28T02:06:17;99581.92;;;15.30;100.00
11413;BME280;5762;43.256;26.960;2023-07-28T02:08:46;99582.58;;;15.27;100.00
11413;BME280;5762;43.256;26.960;2023-07-28T02:11:15;99581.92;;;15.30;100.00
11413;BME280;5762;43.256;26.960;2023-07-28T02:13:44;99590.52;;;15.20;100.00
11413;BME280;5762;43.256;26.960;2023-07-28T02:16:13;99585.45;;;15.10;100.00
11413;BME280;5762;43.256;26.960;2023-07-28T02:18:41;99593.25;;;15.20;100.00
11413;BME280;5762;43.256;26.960;2023-07-28T02:21:10;99589.34;;;15.15;100.00
11413;BME280;5762;43.256;26.960;2023-07-28T02:23:40;99595.98;;;15.05;100.00
11413;BME280;5762;43.256;26.960;2023-07-28T02:26:08;99600.97;;;15.03;100.00
11413;BME280;5762;43.256;26.960;2023-07-28T02:28:37;99599.78;;;15.13;100.00
11413;BME280;5762;43.256;26.960;2023-07-28T02:31:06;99610.13;;;15.14;100.00
11413;BME280;5762;43.256;26.960;2023-07-28T02:33:35;99616.75;;;15.19;100.00
11413;BME280;5762;43.256;26.960;2023-07-28T02:36:05;99617.46;;;15.07;100.00
11413;BME280;5762;43.256;26.960;2023-07-28T02:38:34;99609.56;;;14.99;100.00
11413;BME280;5762;43.256;26.960;2023-07-28T02:41:03;99618.55;;;15.00;100.00
11413;BME280;5762;43.256;26.960;2023-07-28T02:43:31;99613.61;;;15.08;100.00
11413;BME280;5762;43.256;26.960;2023-07-28T02:46:00;99613.09;;;15.00;100.00
11413;BME280;5762;43.256;26.960;2023-07-28T02:48:28;99618.78;;;15.01;100.00
11413;BME280;5762;43.256;26.960;2023-07-28T02:50:56;99622.53;;;15.02;100.00
11413;BME280;5762;43.256;26.960;2023-07-28T02:53:25;99621.92;;;14.97;100.00
11413;BME280;5762;43.256;26.960;2023-07-28T02:55:54;99617.91;;;14.88;100.00
11413;BME280;5762;43.256;26.960;2023-07-28T02:58:23;99612.09;;;14.84;100.00
11413;BME280;5762;43.256;26.960;2023-07-28T03:00:51;99613.16;;;14.77;100.00
11413;BME280;5762;43.256;26.960;2023-07-28T03:03:20;99615.13;;;14.67;100.00
11413;BME280;5762;43.256;26.960;2023-07-28T03:05:51;99615.78;;;14.64;100.00
11413;BME280;5762;43.256;26.960;2023-07-28T03:08:18;99611.93;;;14.65;100.00
11413;BME280;5762;43.256;26.960;2023-07-28T03:10:47;99622.36;;;14.63;100.00
11413;BME280;5762;43.256;26.960;2023-07-28T03:13:15;99619.39;;;14.62;100.00
11413;BME280;5762;43.256;26.960;2023-07-28T03:15:44;99616.67;;;14.62;100.00
11413;BME280;5762;43.256;26.960;2023-07-28T03:18:13;99623.95;;;14.64;100.00
11413;BME280;5762;43.256;26.960;2023-07-28T03:20:42;99631.29;;;14.72;100.00
11413;BME280;5762;43.256;26.960;2023-07-28T03:23:10;99629.07;;;14.66;100.00
11413;BME280;5762;43.256;26.960;2023-07-28T03:25:39;99631.66;;;14.62;100.00
11413;BME280;5762;43.256;26.960;2023-07-28T03:28:07;99626.86;;;14.59;100.00
11413;BME280;5762;43.256;26.960;2023-07-28T03:30:36;99632.54;;;14.60;100.00
11413;BME280;5762;43.256;26.960;2023-07-28T03:33:05;99641.66;;;14.64;100.00
11413;BME280;5762;43.256;26.960;2023-07-28T03:35:34;99641.66;;;14.64;100.00
11413;BME280;5762;43.256;26.960;2023-07-28T03:38:02;99649.30;;;14.56;100.00
11413;BME280;5762;43.256;26.960;2023-07-28T03:40:31;99652.64;;;14.62;100.00
11413;BME280;5762;43.256;26.960;2023-07-28T03:43:00;99656.52;;;14.75;100.00
11413;BME280;5762;43.256;26.960;2023-07-28T03:45:29;99663.53;;;14.85;100.00
11413;BME280;5762;43.256;26.960;2023-07-28T03:47:58;99665.96;;;14.78;100.00
11413;BME280;5762;43.256;26.960;2023-07-28T03:50:27;99667.64;;;14.91;100.00
11413;BME280;5762;43.256;26.960;2023-07-28T03:52:55;99669.00;;;14.91;100.00
11413;BME280;5762;43.256;26.960;2023-07-28T03:55:24;99665.48;;;14.91;100.00
11413;BME280;5762;43.256;26.960;2023-07-28T03:57:53;99661.77;;;14.95;100.00
11413;BME280;5762;43.256;26.960;2023-07-28T04:00:21;99659.76;;;15.13;100.00
11413;BME280;5762;43.256;26.960;2023-07-28T04:02:49;99659.86;;;15.31;100.00
11413;BME280;5762;43.256;26.960;2023-07-28T04:05:18;99662.06;;;15.38;100.00
11413;BME280;5762;43.256;26.960;2023-07-28T04:07:47;99661.41;;;15.41;100.00
11413;BME280;5762;43.256;26.960;2023-07-28T04:10:16;99666.00;;;15.49;100.00
11413;BME280;5762;43.256;26.960;2023-07-28T04:12:45;99669.44;;;15.52;100.00
11413;BME280;5762;43.256;26.960;2023-07-28T04:15:13;99675.39;;;15.60;100.00
11413;BME280;5762;43.256;26.960;2023-07-28T04:17:42;99680.22;;;15.69;100.00
11413;BME280;5762;43.256;26.960;2023-07-28T04:20:11;99673.50;;;15.67;100.00
11413;BME280;5762;43.256;26.960;2023-07-28T04:22:40;99673.91;;;15.78;100.00
11413;BME280;5762;43.256;26.960;2023-07-28T04:25:08;99673.30;;;15.72;100.00
11413;BME280;5762;43.256;26.960;2023-07-28T04:27:37;99679.26;;;15.80;100.00
11413;BME280;5762;43.256;26.960;2023-07-28T04:30:06;99683.55;;;16.02;100.00
11413;BME280;5762;43.256;26.960;2023-07-28T04:32:35;99674.58;;;16.07;100.00
11413;BME280;5762;43.256;26.960;2023-07-28T04:35:04;99684.97;;;16.14;100.00
11413;BME280;5762;43.256;26.960;2023-07-28T04:37:32;99675.67;;;16.33;100.00
11413;BME280;5762;43.256;26.960;2023-07-28T04:40:01;99679.23;;;16.46;100.00
11413;BME280;5762;43.256;26.960;2023-07-28T04:42:30;99672.09;;;16.54;100.00
11413;BME280;5762;43.256;26.960;2023-07-28T04:44:59;99668.25;;;16.73;100.00
11413;BME280;5762;43.256;26.960;2023-07-28T04:47:28;99655.73;;;16.78;100.00
11413;BME280;5762;43.256;26.960;2023-07-28T04:49:56;99658.13;;;16.92;100.00
11413;BME280;5762;43.256;26.960;2023-07-28T04:52:25;99650.59;;;17.01;100.00
11413;BME280;5762;43.256;26.960;2023-07-28T04:54:53;99645.34;;;17.20;100.00
11413;BME280;5762;43.256;26.960;2023-07-28T04:57:22;99634.73;;;17.25;100.00
11413;BME280;5762;43.256;26.960;2023-07-28T04:59:51;99653.47;;;17.51;100.00
11413;BME280;5762;43.256;26.960;2023-07-28T05:02:20;99646.73;;;17.54;100.00
11413;BME280;5762;43.256;26.960;2023-07-28T05:04:48;99632.66;;;17.74;100.00
11413;BME280;5762;43.256;26.960;2023-07-28T05:07:17;99631.42;;;17.99;100.00
11413;BME280;5762;43.256;26.960;2023-07-28T05:09:46;99628.34;;;18.17;100.00
11413;BME280;5762;43.256;26.960;2023-07-28T05:12:15;99625.41;;;18.31;100.00
11413;BME280;5762;43.256;26.960;2023-07-28T05:14:43;99617.88;;;18.44;100.00
11413;BME280;5762;43.256;26.960;2023-07-28T05:17:12;99620.27;;;18.46;100.00
11413;BME280;5762;43.256;26.960;2023-07-28T05:19:41;99618.06;;;18.51;100.00
11413;BME280;5762;43.256;26.960;2023-07-28T05:22:10;99618.77;;;18.80;100.00
11413;BME280;5762;43.256;26.960;2023-07-28T05:24:38;99614.91;;;18.90;100.00
11413;BME280;5762;43.256;26.960;2023-07-28T05:27:06;99631.77;;;19.08;100.00
11413;BME280;5762;43.256;26.960;2023-07-28T05:29:35;99634.31;;;19.17;100.00
11413;BME280;5762;43.256;26.960;2023-07-28T05:32:04;99644.11;;;19.33;100.00
11413;BME280;5762;43.256;26.960;2023-07-28T05:34:32;99640.13;;;19.50;100.00
11413;BME280;5762;43.256;26.960;2023-07-28T05:37:01;99640.98;;;19.70;100.00
11413;BME280;5762;43.256;26.960;2023-07-28T05:39:30;99624.69;;;19.81;100.00
11413;BME280;5762;43.256;26.960;2023-07-28T05:41:59;99609.44;;;19.93;100.00
11413;BME280;5762;43.256;26.960;2023-07-28T05:44:28;99600.03;;;20.03;100.00
11413;BME280;5762;43.256;26.960;2023-07-28T05:46:57;99601.86;;;20.19;100.00
11413;BME280;5762;43.256;26.960;2023-07-28T05:49:25;99597.20;;;20.42;100.00
11413;BME280;5762;43.256;26.960;2023-07-28T05:51:54;99598.94;;;20.54;100.00
11413;BME280;5762;43.256;26.960;2023-07-28T05:54:23;99598.91;;;20.63;100.00
11413;BME280;5762;43.256;26.960;2023-07-28T05:56:52;99583.47;;;20.68;100.00
11413;BME280;5762;43.256;26.960;2023-07-28T05:59:22;99594.74;;;20.73;100.00
11413;BME280;5762;43.256;26.960;2023-07-28T06:01:50;99591.61;;;20.61;100.00
11413;BME280;5762;43.256;26.960;2023-07-28T06:04:19;99586.18;;;20.78;100.00
11413;BME280;5762;43.256;26.960;2023-07-28T06:06:48;99591.55;;;20.84;100.00
11413;BME280;5762;43.256;26.960;2023-07-28T06:09:17;99596.12;;;20.73;100.00
11413;BME280;5762;43.256;26.960;2023-07-28T06:11:46;99589.70;;;20.92;100.00
11413;BME280;5762;43.256;26.960;2023-07-28T06:14:15;99595.70;;;21.14;100.00
11413;BME280;5762;43.256;26.960;2023-07-28T06:16:43;99593.28;;;21.35;100.00
11413;BME280;5762;43.256;26.960;2023-07-28T06:19:12;99580.10;;;21.35;100.00
11413;BME280;5762;43.256;26.960;2023-07-28T06:21:40;99579.67;;;21.50;100.00
11413;BME280;5762;43.256;26.960;2023-07-28T06:24:09;99588.14;;;21.51;100.00
11413;BME280;5762;43.256;26.960;2023-07-28T06:26:38;99595.59;;;21.47;100.00
11413;BME280;5762;43.256;26.960;2023-07-28T06:29:07;99606.03;;;21.47;100.00
11413;BME280;5762;43.256;26.960;2023-07-28T06:31:36;99603.33;;;21.54;100.00
11413;BME280;5762;43.256;26.960;2023-07-28T06:34:05;99608.66;;;21.70;100.00
11413;BME280;5762;43.256;26.960;2023-07-28T06:36:34;99608.80;;;21.84;100.00
11413;BME280;5762;43.256;26.960;2023-07-28T06:39:03;99611.84;;;21.92;100.00
11413;BME280;5762;43.256;26.960;2023-07-28T06:41:32;99614.47;;;21.98;100.00
11413;BME280;5762;43.256;26.960;2023-07-28T06:44:00;99614.70;;;22.20;100.00
11413;BME280;5762;43.256;26.960;2023-07-28T06:46:29;99609.84;;;22.47;100.00
11413;BME280;5762;43.256;26.960;2023-07-28T06:48:58;99619.19;;;22.59;100.00
11413;BME280;5762;43.256;26.960;2023-07-28T06:51:26;99623.56;;;22.84;100.00
11413;BME280;5762;43.256;26.960;2023-07-28T06:53:54;99630.34;;;22.97;100.00
11413;BME280;5762;43.256;26.960;2023-07-28T06:56:23;99634.84;;;22.92;100.00
11413;BME280;5762;43.256;26.960;2023-07-28T06:58:52;99634.25;;;23.20;100.00
11413;BME280;5762;43.256;26.960;2023-07-28T07:01:20;99649.91;;;23.36;100.00
11413;BME280;5762;43.256;26.960;2023-07-28T07:03:49;99651.17;;;23.49;100.00
11413;BME280;5762;43.256;26.960;2023-07-28T07:06:19;99657.59;;;23.67;100.00
11413;BME280;5762;43.256;26.960;2023-07-28T07:08:47;99659.98;;;23.72;100.00
11413;BME280;5762;43.256;26.960;2023-07-28T07:11:15;99664.78;;;23.86;100.00
11413;BME280;5762;43.256;26.960;2023-07-28T07:13:44;99668.16;;;23.96;100.00
11413;BME280;5762;43.256;26.960;2023-07-28T07:16:16;99669.91;;;23.91;100.00
11413;BME280;5762;43.256;26.960;2023-07-28T07:18:44;99667.28;;;23.71;100.00
11413;BME280;5762;43.256;26.960;2023-07-28T07:21:13;99671.68;;;23.83;100.00
11413;BME280;5762;43.256;26.960;2023-07-28T07:23:41;99671.09;;;23.83;100.00
11413;BME280;5762;43.256;26.960;2023-07-28T07:26:10;99669.78;;;24.08;100.00
11413;BME280;5762;43.256;26.960;2023-07-28T07:28:39;99677.09;;;24.10;100.00
11413;BME280;5762;43.256;26.960;2023-07-28T07:31:12;99669.16;;;24.01;100.00
11413;BME280;5762;43.256;26.960;2023-07-28T07:33:41;99668.17;;;24.00;100.00
11413;BME280;5762;43.256;26.960;2023-07-28T07:36:12;99671.66;;;23.79;100.00
11413;BME280;5762;43.256;26.960;2023-07-28T07:38:41;99657.47;;;23.84;100.00
11413;BME280;5762;43.256;26.960;2023-07-28T07:41:10;99665.63;;;24.08;100.00
11413;BME280;5762;43.256;26.960;2023-07-28T07:43:39;99665.68;;;24.22;100.00
11413;BME280;5762;43.256;26.960;2023-07-28T07:46:08;99668.88;;;24.35;100.00
11413;BME280;5762;43.256;26.960;2023-07-28T07:48:37;99663.19;;;24.59;100.00
11413;BME280;5762;43.256;26.960;2023-07-28T07:51:06;99651.33;;;24.55;100.00
11413;BME280;5762;43.256;26.960;2023-07-28T07:53:35;99653.49;;;24.80;100.00
11413;BME280;5762;43.256;26.960;2023-07-28T07:56:04;99654.88;;;25.09;100.00
11413;BME280;5762;43.256;26.960;2023-07-28T07:58:32;99660.80;;;25.11;100.00
11413;BME280;5762;43.256;26.960;2023-07-28T08:01:02;99661.02;;;24.97;100.00
11413;BME280;5762;43.256;26.960;2023-07-28T08:03:31;99656.44;;;25.27;100.00
11413;BME280;5762;43.256;26.960;2023-07-28T08:06:00;99661.90;;;25.52;100.00
11413;BME280;5762;43.256;26.960;2023-07-28T08:08:29;99672.10;;;25.84;100.00
11413;BME280;5762;43.256;26.960;2023-07-28T08:10:58;99669.37;;;25.73;100.00
11413;BME280;5762;43.256;26.960;2023-07-28T08:13:26;99670.17;;;25.70;100.00
11413;BME280;5762;43.256;26.960;2023-07-28T08:15:55;99672.72;;;25.76;100.00
11413;BME280;5762;43.256;26.960;2023-07-28T08:18:23;99679.47;;;25.71;100.00
11413;BME280;5762;43.256;26.960;2023-07-28T08:20:52;99670.11;;;25.88;100.00
11413;BME280;5762;43.256;26.960;2023-07-28T08:23:21;99672.84;;;25.98;100.00
11413;BME280;5762;43.256;26.960;2023-07-28T08:25:49;99672.10;;;25.84;100.00
11413;BME280;5762;43.256;26.960;2023-07-28T08:28:18;99677.81;;;25.92;100.00
11413;BME280;5762;43.256;26.960;2023-07-28T08:30:53;99667.52;;;25.92;100.00
11413;BME280;5762;43.256;26.960;2023-07-28T08:33:17;99668.38;;;26.15;100.00
11413;BME280;5762;43.256;26.960;2023-07-28T08:35:45;99667.81;;;26.45;100.00
11413;BME280;5762;43.256;26.960;2023-07-28T08:38:14;99667.13;;;26.27;100.00
11413;BME280;5762;43.256;26.960;2023-07-28T08:40:47;99672.66;;;25.94;100.00
11413;BME280;5762;43.256;26.960;2023-07-28T08:43:12;99669.80;;;26.08;100.00
11413;BME280;5762;43.256;26.960;2023-07-28T08:45:41;99668.55;;;26.53;100.00
11413;BME280;5762;43.256;26.960;2023-07-28T08:48:10;99672.55;;;26.74;100.00
11413;BME280;5762;43.256;26.960;2023-07-28T08:50:39;99665.24;;;26.94;100.00
11413;BME280;5762;43.256;26.960;2023-07-28T08:53:08;99667.27;;;27.13;100.00
11413;BME280;5762;43.256;26.960;2023-07-28T08:55:36;99676.48;;;27.25;100.00
11413;BME280;5762;43.256;26.960;2023-07-28T08:58:18;99663.06;;;27.16;100.00
11413;BME280;5762;43.256;26.960;2023-07-28T09:00:47;99664.30;;;27.49;100.00
11413;BME280;5762;43.256;26.960;2023-07-28T09:03:21;99668.50;;;27.68;100.00
11413;BME280;5762;43.256;26.960;2023-07-28T09:05:46;99665.98;;;27.62;100.00
11413;BME280;5762;43.256;26.960;2023-07-28T09:08:15;99661.26;;;27.55;100.00
11413;BME280;5762;43.256;26.960;2023-07-28T09:10:45;99663.02;;;27.91;100.00
11413;BME280;5762;43.256;26.960;2023-07-28T09:13:16;99667.66;;;27.86;100.00
11413;BME280;5762;43.256;26.960;2023-07-28T09:15:45;99664.55;;;27.96;100.00
11413;BME280;5762;43.256;26.960;2023-07-28T09:18:15;99658.48;;;28.05;100.00
11413;BME280;5762;43.256;26.960;2023-07-28T09:20:44;99657.55;;;27.84;100.00
11413;BME280;5762;43.256;26.960;2023-07-28T09:23:13;99655.42;;;27.95;100.00
11413;BME280;5762;43.256;26.960;2023-07-28T09:25:42;99657.64;;;27.92;100.00
11413;BME280;5762;43.256;26.960;2023-07-28T09:28:11;99658.37;;;27.81;100.00
11413;BME280;5762;43.256;26.960;2023-07-28T09:30:47;99652.83;;;27.96;100.00
11413;BME280;5762;43.256;26.960;2023-07-28T09:33:29;99655.95;;;28.14;100.00
11413;BME280;5762;43.256;26.960;2023-07-28T09:35:58;99655.55;;;28.42;100.00
11413;BME280;5762;43.256;26.960;2023-07-28T09:38:27;99658.05;;;28.48;100.00
11413;BME280;5762;43.256;26.960;2023-07-28T09:40:56;99648.31;;;28.37;100.00
11413;BME280;5762;43.256;26.960;2023-07-28T09:43:26;99647.89;;;28.38;100.00
11413;BME280;5762;43.256;26.960;2023-07-28T09:45:54;99647.75;;;28.45;100.00
11413;BME280;5762;43.256;26.960;2023-07-28T09:48:24;99639.69;;;28.27;100.00
11413;BME280;5762;43.256;26.960;2023-07-28T09:50:53;99637.62;;;28.05;100.00
11413;BME280;5762;43.256;26.960;2023-07-28T09:53:22;99639.40;;;28.45;100.00
11413;BME280;5762;43.256;26.960;2023-07-28T09:55:51;99626.61;;;28.75;91.39
11413;BME280;5762;43.256;26.960;2023-07-28T09:58:20;99635.69;;;28.67;91.48
11413;BME280;5762;43.256;26.960;2023-07-28T10:00:49;99639.66;;;28.54;95.07
11413;BME280;5762;43.256;26.960;2023-07-28T10:03:18;99626.38;;;28.27;100.00
11413;BME280;5762;43.256;26.960;2023-07-28T10:05:47;99623.28;;;27.76;100.00
11413;BME280;5762;43.256;26.960;2023-07-28T10:08:16;99616.44;;;28.11;100.00
11413;BME280;5762;43.256;26.960;2023-07-28T10:10:46;99616.52;;;28.46;100.00
11413;BME280;5762;43.256;26.960;2023-07-28T10:13:21;99613.56;;;28.33;100.00
11413;BME280;5762;43.256;26.960;2023-07-28T10:15:50;99615.97;;;27.89;100.00
11413;BME280;5762;43.256;26.960;2023-07-28T10:18:22;99614.89;;;27.94;100.00
11413;BME280;5762;43.256;26.960;2023-07-28T10:20:50;99609.56;;;28.19;100.00
11413;BME280;5762;43.256;26.960;2023-07-28T10:23:22;99603.91;;;28.11;100.00
11413;BME280;5762;43.256;26.960;2023-07-28T10:25:57;99602.09;;;28.00;100.00
11413;BME280;5762;43.256;26.960;2023-07-28T10:28:30;99596.86;;;27.91;100.00
11413;BME280;5762;43.256;26.960;2023-07-28T10:30:59;99597.63;;;28.22;100.00
11413;BME280;5762;43.256;26.960;2023-07-28T10:38:35;99589.97;;;28.76;100.00
11413;BME280;5762;43.256;26.960;2023-07-28T10:41:09;99586.87;;;29.25;100.00
11413;BME280;5762;43.256;26.960;2023-07-28T10:43:37;99583.63;;;29.58;100.00
11413;BME280;5762;43.256;26.960;2023-07-28T10:46:07;99586.03;;;29.84;100.00
11413;BME280;5762;43.256;26.960;2023-07-28T10:48:36;99581.48;;;30.02;100.00
11413;BME280;5762;43.256;26.960;2023-07-28T10:51:04;99580.35;;;30.16;100.00
11413;BME280;5762;43.256;26.960;2023-07-28T10:53:33;99583.16;;;30.24;100.00
11413;BME280;5762;43.256;26.960;2023-07-28T10:56:02;99578.09;;;30.27;100.00
11413;BME280;5762;43.256;26.960;2023-07-28T10:58:31;99577.94;;;29.54;100.00
11413;BME280;5762;43.256;26.960;2023-07-28T11:01:00;99565.53;;;30.03;100.00
11413;BME280;5762;43.256;26.960;2023-07-28T11:03:29;99564.72;;;30.51;100.00
11413;BME280;5762;43.256;26.960;2023-07-28T11:05:57;99562.38;;;30.74;100.00
11413;BME280;5762;43.256;26.960;2023-07-28T11:08:26;99556.38;;;30.96;100.00
11413;BME280;5762;43.256;26.960;2023-07-28T11:10:55;99551.13;;;30.98;100.00
11413;BME280;5762;43.256;26.960;2023-07-28T11:13:23;99552.69;;;31.15;100.00
11413;BME280;5762;43.256;26.960;2023-07-28T11:15:52;99556.39;;;31.25;100.00
11413;BME280;5762;43.256;26.960;2023-07-28T11:18:21;99553.43;;;30.87;100.00
11413;BME280;5762;43.256;26.960;2023-07-28T11:20:50;99552.19;;;31.25;100.00
11413;BME280;5762;43.256;26.960;2023-07-28T11:23:18;99549.57;;;31.59;100.00
11413;BME280;5762;43.256;26.960;2023-07-28T11:25:47;99549.64;;;31.85;98.54
11413;BME280;5762;43.256;26.960;2023-07-28T11:28:16;99539.16;;;31.81;98.91
11413;BME280;5762;43.256;26.960;2023-07-28T11:30:45;99542.14;;;31.82;95.28
11413;BME280;5762;43.256;26.960;2023-07-28T11:33:14;99529.86;;;31.71;98.46
11413;BME280;5762;43.256;26.960;2023-07-28T11:35:46;99532.05;;;31.38;100.00
11413;BME280;5762;43.256;26.960;2023-07-28T11:38:15;99519.25;;;30.75;100.00
11413;BME280;5762;43.256;26.960;2023-07-28T11:40:44;99520.87;;;31.17;100.00
11413;BME280;5762;43.256;26.960;2023-07-28T11:43:13;99513.98;;;31.60;100.00
11413;BME280;5762;43.256;26.960;2023-07-28T11:45:42;99515.56;;;31.48;98.45
11413;BME280;5762;43.256;26.960;2023-07-28T11:48:11;99506.73;;;31.16;100.00
11413;BME280;5762;43.256;26.960;2023-07-28T11:50:40;99502.16;;;30.85;100.00
11413;BME280;5762;43.256;26.960;2023-07-28T11:53:09;99495.20;;;31.27;100.00
11413;BME280;5762;43.256;26.960;2023-07-28T11:55:38;99505.08;;;31.57;100.00
11413;BME280;5762;43.256;26.960;2023-07-28T11:58:06;99501.79;;;31.20;100.00
11413;BME280;5762;43.256;26.960;2023-07-28T12:00:36;99500.69;;;31.10;100.00
11413;BME280;5762;43.256;26.960;2023-07-28T12:03:09;99499.27;;;30.68;100.00
11413;BME280;5762;43.256;26.960;2023-07-28T12:05:38;99499.53;;;30.65;100.00
11413;BME280;5762;43.256;26.960;2023-07-28T12:08:07;99496.63;;;31.40;100.00
11413;BME280;5762;43.256;26.960;2023-07-28T12:10:36;99493.12;;;31.44;98.21
11413;BME280;5762;43.256;26.960;2023-07-28T12:13:05;99486.27;;;31.78;100.00
11413;BME280;5762;43.256;26.960;2023-07-28T12:15:33;99489.98;;;31.92;100.00
11413;BME280;5762;43.256;26.960;2023-07-28T12:18:13;99499.28;;;31.51;96.27
11413;BME280;5762;43.256;26.960;2023-07-28T12:20:42;99492.42;;;31.73;100.00
11413;BME280;5762;43.256;26.960;2023-07-28T12:23:12;99495.12;;;32.07;100.00
11413;BME280;5762;43.256;26.960;2023-07-28T12:25:41;99487.02;;;32.04;98.18
11413;BME280;5762;43.256;26.960;2023-07-28T12:28:10;99484.39;;;31.92;95.60
11413;BME280;5762;43.256;26.960;2023-07-28T12:30:39;99482.52;;;32.19;94.01
11413;BME280;5762;43.256;26.960;2023-07-28T12:33:07;99477.06;;;32.50;86.76
11413;BME280;5762;43.256;26.960;2023-07-28T12:35:36;99475.06;;;32.21;90.53
11413;BME280;5762;43.256;26.960;2023-07-28T12:38:05;99469.25;;;31.85;90.71
11413;BME280;5762;43.256;26.960;2023-07-28T12:40:33;99466.02;;;32.04;100.00
11413;BME280;5762;43.256;26.960;2023-07-28T12:43:02;99466.69;;;32.55;90.66
11413;BME280;5762;43.256;26.960;2023-07-28T12:45:30;99469.87;;;32.67;82.83
11413;BME280;5762;43.256;26.960;2023-07-28T12:47:59;99465.40;;;32.05;81.61
11413;BME280;5762;43.256;26.960;2023-07-28T12:50:28;99466.24;;;31.97;80.91
11413;BME280;5762;43.256;26.960;2023-07-28T12:52:57;99469.13;;;32.19;74.72
11413;BME280;5762;43.256;26.960;2023-07-28T12:55:26;99458.30;;;32.25;76.06
11413;BME280;5762;43.256;26.960;2023-07-28T12:57:54;99445.46;;;32.33;75.84
11413;BME280;5762;43.256;26.960;2023-07-28T13:00:23;99454.45;;;32.45;75.18
11413;BME280;5762;43.256;26.960;2023-07-28T13:02:52;99443.44;;;32.72;80.69
11413;BME280;5762;43.256;26.960;2023-07-28T13:05:21;99448.41;;;32.85;77.15
11413;BME280;5762;43.256;26.960;2023-07-28T13:07:50;99438.81;;;33.00;75.73